This is the latest recevied weather packets stored in our database for station/object M0SDM. If no packets are shown the sender has not sent any weather packets the latest 1 day(s).
| Time | Temp. | Humidity | Pressure | Rain* | Wind** | Luminosity | Snow |
|---|---|---|---|---|---|---|---|
| 1778009121 | 10° C | 81% | 1012.8 hPa | 0 mm | 0.45 m/s, 251° | - | - |
| 1778008221 | 10.56° C | 80% | 1012.7 hPa | 0 mm | 0.89 m/s, 163° | - | - |
| 1778007321 | 10.56° C | 80% | 1012.6 hPa | 0 mm | 0.89 m/s, 290° | - | - |
| 1778006421 | 11.11° C | 78% | 1012 hPa | 0 mm | 0 m/s | - | - |
| 1778005521 | 11.11° C | 78% | 1011.9 hPa | 0 mm | 0 m/s | - | - |
| 1778004621 | 11.11° C | 76% | 1011.8 hPa | 0 mm | 0 m/s | - | - |
| 1778003721 | 11.67° C | 76% | 1011.7 hPa | 0 mm | 0.45 m/s, 309° | - | - |
| 1778002821 | 12.22° C | 76% | 1011.3 hPa | 0 mm | 0.45 m/s, 327° | - | - |
| 1778001921 | 12.22° C | 75% | 1011.3 hPa | 0 mm | 0.89 m/s, 272° | - | - |
| 1778001021 | 13.33° C | 70% | 1011 hPa | 0 mm | 0.45 m/s, 208° | - | - |
| 1778000121 | 13.89° C | 66% | 1011 hPa | 0 mm | 0.89 m/s, 349° | - | - |
| 1777999221 | 14.44° C | 57% | 1010.9 hPa | 0 mm | 0.45 m/s, 66° | - | - |
| 1777998325 | 14.44° C | 56% | 1010.8 hPa | 0 mm | 0.45 m/s, 14° | - | - |
| 1777997421 | 14.44° C | 57% | 1010.6 hPa | 0 mm | 0.45 m/s, 44° | - | - |
| 1777996521 | 15° C | 57% | 1010.4 hPa | 0 mm | 0.45 m/s, 296° | - | - |
| 1777995621 | 16.11° C | 55% | 1010.7 hPa | 0 mm | 0.45 m/s, 90° | - | - |
| 1777994721 | 15.56° C | 55% | 1010.6 hPa | 0 mm | 0 m/s | - | - |
| 1777993821 | 15.56° C | 55% | 1011 hPa | 0 mm | 0 m/s | - | - |
| 1777992921 | 15.56° C | 55% | 1011 hPa | 0 mm | 0.45 m/s, 326° | - | - |
| 1777992021 | 15.56° C | 57% | 1011 hPa | 0 mm | 0 m/s | - | - |
| 1777991121 | 15.56° C | 56% | 1010.8 hPa | 0 mm | 0 m/s | - | - |
| 1777990221 | 15° C | 57% | 1010.7 hPa | 0 mm | 0.89 m/s, 115° | - | - |
| 1777989321 | 15.56° C | 57% | 1010.8 hPa | 0 mm | 0.89 m/s, 62° | - | - |
| 1777988421 | 15.56° C | 57% | 1011 hPa | 0 mm | 0.45 m/s, 359° | - | - |
| 1777987521 | 15.56° C | 59% | 1010.9 hPa | 0 mm | 0 m/s | - | - |
* Rain latest hour (hover to see other rain measurements)
** Current wind speed in m/s (hover to see current wind gust speed)